sensor_id;sensor_type;location;lat;lon;timestamp;pressure;altitude;pressure_sealevel;temperature
65738;BMP280;52478;51.844;6.582;2023-03-01T00:02:11;102844.94;;;22.00
65738;BMP280;52478;51.844;6.582;2023-03-01T00:04:37;102843.38;;;21.99
65738;BMP280;52478;51.844;6.582;2023-03-01T00:07:04;102833.97;;;21.97
65738;BMP280;52478;51.844;6.582;2023-03-01T00:09:30;102839.03;;;21.98
65738;BMP280;52478;51.844;6.582;2023-03-01T00:11:57;102831.66;;;21.95
65738;BMP280;52478;51.844;6.582;2023-03-01T00:14:25;102830.09;;;21.94
65738;BMP280;52478;51.844;6.582;2023-03-01T00:16:51;102830.88;;;21.95
65738;BMP280;52478;51.844;6.582;2023-03-01T00:19:19;102830.28;;;21.91
65738;BMP280;52478;51.844;6.582;2023-03-01T00:21:47;102829.03;;;21.92
65738;BMP280;52478;51.844;6.582;2023-03-01T00:24:14;102826.25;;;21.92
65738;BMP280;52478;51.844;6.582;2023-03-01T00:26:40;102826.44;;;21.88
65738;BMP280;52478;51.844;6.582;2023-03-01T00:29:07;102826.44;;;21.88
65738;BMP280;52478;51.844;6.582;2023-03-01T00:31:35;102813.75;;;21.87
65738;BMP280;52478;51.844;6.582;2023-03-01T00:34:03;102814.53;;;21.88
65738;BMP280;52478;51.844;6.582;2023-03-01T00:36:32;102815.00;;;21.86
65738;BMP280;52478;51.844;6.582;2023-03-01T00:38:59;102813.50;;;21.85
65738;BMP280;52478;51.844;6.582;2023-03-01T00:41:26;102809.63;;;21.83
65738;BMP280;52478;51.844;6.582;2023-03-01T00:43:53;102809.13;;;21.84
65738;BMP280;52478;51.844;6.582;2023-03-01T00:46:22;102814.72;;;21.84
65738;BMP280;52478;51.844;6.582;2023-03-01T00:48:50;102805.28;;;21.82
65738;BMP280;52478;51.844;6.582;2023-03-01T00:51:18;102809.34;;;21.81
65738;BMP280;52478;51.844;6.582;2023-03-01T00:53:46;102812.59;;;21.79
65738;BMP280;52478;51.844;6.582;2023-03-01T00:56:13;102801.91;;;21.78
65738;BMP280;52478;51.844;6.582;2023-03-01T00:58:40;102799.91;;;21.78
65738;BMP280;52478;51.844;6.582;2023-03-01T01:01:12;102802.41;;;21.76
65738;BMP280;52478;51.844;6.582;2023-03-01T01:03:44;102801.63;;;21.76
65738;BMP280;52478;51.844;6.582;2023-03-01T01:06:20;102795.78;;;21.74
65738;BMP280;52478;51.844;6.582;2023-03-01T01:08:47;102788.19;;;21.74
65738;BMP280;52478;51.844;6.582;2023-03-01T01:11:14;102797.00;;;21.73
65738;BMP280;52478;51.844;6.582;2023-03-01T01:13:41;102789.91;;;21.72
65738;BMP280;52478;51.844;6.582;2023-03-01T01:16:08;102785.09;;;21.72
65738;BMP280;52478;51.844;6.582;2023-03-01T01:18:35;102782.78;;;21.71
65738;BMP280;52478;51.844;6.582;2023-03-01T01:21:06;102770.13;;;21.70
65738;BMP280;52478;51.844;6.582;2023-03-01T01:23:34;102770.88;;;21.70
65738;BMP280;52478;51.844;6.582;2023-03-01T01:26:05;102774.13;;;21.69
65738;BMP280;52478;51.844;6.582;2023-03-01T01:28:32;102759.91;;;21.67
65738;BMP280;52478;51.844;6.582;2023-03-01T01:30:58;102765.97;;;21.65
65738;BMP280;52478;51.844;6.582;2023-03-01T01:33:25;102752.03;;;21.65
65738;BMP280;52478;51.844;6.582;2023-03-01T01:35:52;102764.44;;;21.64
65738;BMP280;52478;51.844;6.582;2023-03-01T01:38:18;102754.53;;;21.63
65738;BMP280;52478;51.844;6.582;2023-03-01T01:40:49;102748.19;;;21.63
65738;BMP280;52478;51.844;6.582;2023-03-01T01:43:19;102758.59;;;21.62
65738;BMP280;52478;51.844;6.582;2023-03-01T01:45:46;102768.16;;;21.61
65738;BMP280;52478;51.844;6.582;2023-03-01T01:48:16;102761.84;;;21.61
65738;BMP280;52478;51.844;6.582;2023-03-01T01:50:45;102777.78;;;21.60
65738;BMP280;52478;51.844;6.582;2023-03-01T01:53:16;102776.22;;;21.59
65738;BMP280;52478;51.844;6.582;2023-03-01T01:55:46;102766.38;;;21.58
65738;BMP280;52478;51.844;6.582;2023-03-01T01:58:18;102767.59;;;21.57
65738;BMP280;52478;51.844;6.582;2023-03-01T02:00:45;102759.22;;;21.57
65738;BMP280;52478;51.844;6.582;2023-03-01T02:03:14;102766.03;;;21.56
65738;BMP280;52478;51.844;6.582;2023-03-01T02:05:47;102764.50;;;21.55
65738;BMP280;52478;51.844;6.582;2023-03-01T02:08:18;102763.00;;;21.54
65738;BMP280;52478;51.844;6.582;2023-03-01T02:10:45;102764.25;;;21.53
65738;BMP280;52478;51.844;6.582;2023-03-01T02:13:12;102760.66;;;21.53
65738;BMP280;52478;51.844;6.582;2023-03-01T02:15:41;102757.41;;;21.54
65738;BMP280;52478;51.844;6.582;2023-03-01T02:18:10;102757.09;;;21.52
65738;BMP280;52478;51.844;6.582;2023-03-01T02:20:42;102744.41;;;21.51
65738;BMP280;52478;51.844;6.582;2023-03-01T02:23:11;102743.38;;;21.49
65738;BMP280;52478;51.844;6.582;2023-03-01T02:25:45;102740.13;;;21.50
65738;BMP280;52478;51.844;6.582;2023-03-01T02:28:29;102738.56;;;21.49
65738;BMP280;52478;51.844;6.582;2023-03-01T02:30:56;102739.78;;;21.48
65738;BMP280;52478;51.844;6.582;2023-03-01T02:33:41;102740.31;;;21.47
65738;BMP280;52478;51.844;6.582;2023-03-01T02:36:10;102733.94;;;21.46
65738;BMP280;52478;51.844;6.582;2023-03-01T02:38:39;102728.38;;;21.46
65738;BMP280;52478;51.844;6.582;2023-03-01T02:41:07;102736.75;;;21.46
65738;BMP280;52478;51.844;6.582;2023-03-01T02:43:35;102737.19;;;21.45
65738;BMP280;52478;51.844;6.582;2023-03-01T02:46:05;102737.69;;;21.43
65738;BMP280;52478;51.844;6.582;2023-03-01T02:48:43;102739.72;;;21.43
65738;BMP280;52478;51.844;6.582;2023-03-01T02:51:19;102736.16;;;21.42
65738;BMP280;52478;51.844;6.582;2023-03-01T02:53:58;102732.63;;;21.42
65738;BMP280;52478;51.844;6.582;2023-03-01T02:56:25;102738.94;;;21.42
65738;BMP280;52478;51.844;6.582;2023-03-01T02:58:53;102735.88;;;21.40
65738;BMP280;52478;51.844;6.582;2023-03-01T03:01:20;102735.88;;;21.40
65738;BMP280;52478;51.844;6.582;2023-03-01T03:03:47;102731.56;;;21.39
65738;BMP280;52478;51.844;6.582;2023-03-01T03:06:13;102732.78;;;21.38
65738;BMP280;52478;51.844;6.582;2023-03-01T03:08:39;102735.56;;;21.38
65738;BMP280;52478;51.844;6.582;2023-03-01T03:11:06;102727.59;;;21.31
65738;BMP280;52478;51.844;6.582;2023-03-01T03:13:32;102734.81;;;21.38
65738;BMP280;52478;51.844;6.582;2023-03-01T03:16:02;102734.50;;;21.36
65738;BMP280;52478;51.844;6.582;2023-03-01T03:18:29;102734.97;;;21.34
65738;BMP280;52478;51.844;6.582;2023-03-01T03:20:56;102732.97;;;21.35
65738;BMP280;52478;51.844;6.582;2023-03-01T03:23:23;102738.56;;;21.35
65738;BMP280;52478;51.844;6.582;2023-03-01T03:25:50;102734.69;;;21.32
65738;BMP280;52478;51.844;6.582;2023-03-01T03:28:17;102725.09;;;21.33
65738;BMP280;52478;51.844;6.582;2023-03-01T03:30:43;102733.19;;;21.31
65738;BMP280;52478;51.844;6.582;2023-03-01T03:33:12;102730.41;;;21.31
65738;BMP280;52478;51.844;6.582;2023-03-01T03:35:40;102735.97;;;21.31
65738;BMP280;52478;51.844;6.582;2023-03-01T03:38:09;102728.84;;;21.30
65738;BMP280;52478;51.844;6.582;2023-03-01T03:40:43;102737.22;;;21.30
65738;BMP280;52478;51.844;6.582;2023-03-01T03:43:11;102726.81;;;21.31
65738;BMP280;52478;51.844;6.582;2023-03-01T03:45:38;102727.28;;;21.29
65738;BMP280;52478;51.844;6.582;2023-03-01T03:48:07;102716.16;;;21.29
65738;BMP280;52478;51.844;6.582;2023-03-01T03:50:35;102714.59;;;21.28
65738;BMP280;52478;51.844;6.582;2023-03-01T03:53:04;102717.38;;;21.28
65738;BMP280;52478;51.844;6.582;2023-03-01T03:55:31;102709.53;;;21.27
65738;BMP280;52478;51.844;6.582;2023-03-01T03:57:59;102710.31;;;21.27
65738;BMP280;52478;51.844;6.582;2023-03-01T04:00:28;102708.75;;;21.26
65738;BMP280;52478;51.844;6.582;2023-03-01T04:02:54;102715.56;;;21.25
65738;BMP280;52478;51.844;6.582;2023-03-01T04:05:21;102707.19;;;21.25
65738;BMP280;52478;51.844;6.582;2023-03-01T04:07:49;102703.66;;;21.25
65738;BMP280;52478;51.844;6.582;2023-03-01T04:10:27;102703.38;;;21.23
65738;BMP280;52478;51.844;6.582;2023-03-01T04:12:53;102692.22;;;21.23
65738;BMP280;52478;51.844;6.582;2023-03-01T04:15:21;102691.47;;;21.23
65738;BMP280;52478;51.844;6.582;2023-03-01T04:17:50;102691.47;;;21.23
65738;BMP280;52478;51.844;6.582;2023-03-01T04:20:20;102689.94;;;21.22
65738;BMP280;52478;51.844;6.582;2023-03-01T04:22:56;102693.94;;;21.20
65738;BMP280;52478;51.844;6.582;2023-03-01T04:25:22;102693.19;;;21.20
65738;BMP280;52478;51.844;6.582;2023-03-01T04:27:49;102693.94;;;21.20
65738;BMP280;52478;51.844;6.582;2023-03-01T04:30:16;102698.00;;;21.20
65738;BMP280;52478;51.844;6.582;2023-03-01T04:32:42;102691.66;;;21.19
65738;BMP280;52478;51.844;6.582;2023-03-01T04:35:09;102684.53;;;21.18
65738;BMP280;52478;51.844;6.582;2023-03-01T04:37:36;102694.91;;;21.18
65738;BMP280;52478;51.844;6.582;2023-03-01T04:40:04;102693.34;;;21.17
65738;BMP280;52478;51.844;6.582;2023-03-01T04:42:41;102694.13;;;21.17
65738;BMP280;52478;51.844;6.582;2023-03-01T04:45:08;102684.97;;;21.17
65738;BMP280;52478;51.844;6.582;2023-03-01T04:47:38;102675.13;;;21.16
65738;BMP280;52478;51.844;6.582;2023-03-01T04:50:06;102679.41;;;21.17
65738;BMP280;52478;51.844;6.582;2023-03-01T04:52:33;102679.94;;;21.15
65738;BMP280;52478;51.844;6.582;2023-03-01T04:54:59;102679.16;;;21.15
65738;BMP280;52478;51.844;6.582;2023-03-01T04:57:27;102672.03;;;21.14
65738;BMP280;52478;51.844;6.582;2023-03-01T04:59:54;102659.38;;;21.13
65738;BMP280;52478;51.844;6.582;2023-03-01T05:02:20;102660.91;;;21.14
65738;BMP280;52478;51.844;6.582;2023-03-01T05:04:47;102657.81;;;21.12
65738;BMP280;52478;51.844;6.582;2023-03-01T05:07:13;102652.44;;;21.08
65738;BMP280;52478;51.844;6.582;2023-03-01T05:09:44;102653.22;;;21.09
65738;BMP280;52478;51.844;6.582;2023-03-01T05:12:11;102646.38;;;21.10
65738;BMP280;52478;51.844;6.582;2023-03-01T05:14:39;102655.53;;;21.10
65738;BMP280;52478;51.844;6.582;2023-03-01T05:17:05;102643.59;;;21.10
65738;BMP280;52478;51.844;6.582;2023-03-01T05:19:32;102643.59;;;21.10
65738;BMP280;52478;51.844;6.582;2023-03-01T05:21:59;102642.06;;;21.09
65738;BMP280;52478;51.844;6.582;2023-03-01T05:24:31;102645.59;;;21.09
65738;BMP280;52478;51.844;6.582;2023-03-01T05:26:58;102646.13;;;21.08
65738;BMP280;52478;51.844;6.582;2023-03-01T05:29:27;102640.56;;;21.08
65738;BMP280;52478;51.844;6.582;2023-03-01T05:31:56;102636.97;;;21.07
65738;BMP280;52478;51.844;6.582;2023-03-01T05:34:23;102633.41;;;21.07
65738;BMP280;52478;51.844;6.582;2023-03-01T05:36:50;102637.44;;;21.06
65738;BMP280;52478;51.844;6.582;2023-03-01T05:39:18;102638.69;;;21.05
65738;BMP280;52478;51.844;6.582;2023-03-01T05:41:45;102635.91;;;21.05
65738;BMP280;52478;51.844;6.582;2023-03-01T05:44:11;102629.59;;;21.04
65738;BMP280;52478;51.844;6.582;2023-03-01T05:46:38;102630.84;;;21.03
65738;BMP280;52478;51.844;6.582;2023-03-01T05:49:06;102639.97;;;21.04
65738;BMP280;52478;51.844;6.582;2023-03-01T05:51:32;102637.19;;;21.04
65738;BMP280;52478;51.844;6.582;2023-03-01T05:53:59;102634.41;;;21.04
65738;BMP280;52478;51.844;6.582;2023-03-01T05:56:26;102638.41;;;21.03
65738;BMP280;52478;51.844;6.582;2023-03-01T05:58:52;102639.19;;;21.03
65738;BMP280;52478;51.844;6.582;2023-03-01T06:01:20;102642.44;;;21.02
65738;BMP280;52478;51.844;6.582;2023-03-01T06:03:46;102642.44;;;21.02
65738;BMP280;52478;51.844;6.582;2023-03-01T06:06:14;102646.47;;;21.01
65738;BMP280;52478;51.844;6.582;2023-03-01T06:08:40;102649.00;;;20.99
65738;BMP280;52478;51.844;6.582;2023-03-01T06:11:07;102648.19;;;20.98
65738;BMP280;52478;51.844;6.582;2023-03-01T06:13:33;102643.41;;;20.99
65738;BMP280;52478;51.844;6.582;2023-03-01T06:16:00;102636.59;;;21.00
65738;BMP280;52478;51.844;6.582;2023-03-01T06:18:26;102642.16;;;21.00
65738;BMP280;52478;51.844;6.582;2023-03-01T06:20:53;102643.41;;;20.99
65738;BMP280;52478;51.844;6.582;2023-03-01T06:23:21;102640.63;;;20.99
65738;BMP280;52478;51.844;6.582;2023-03-01T06:25:48;102640.63;;;20.99
65738;BMP280;52478;51.844;6.582;2023-03-01T06:28:15;102633.03;;;20.99
65738;BMP280;52478;51.844;6.582;2023-03-01T06:30:42;102635.31;;;21.01
65738;BMP280;52478;51.844;6.582;2023-03-01T06:33:08;102635.31;;;21.01
65738;BMP280;52478;51.844;6.582;2023-03-01T06:35:35;102638.91;;;21.01
65738;BMP280;52478;51.844;6.582;2023-03-01T06:38:03;102634.41;;;21.04
65738;BMP280;52478;51.844;6.582;2023-03-01T06:40:31;102630.63;;;21.07
65738;BMP280;52478;51.844;6.582;2023-03-01T06:43:00;102632.47;;;21.10
65738;BMP280;52478;51.844;6.582;2023-03-01T06:45:27;102632.47;;;21.10
65738;BMP280;52478;51.844;6.582;2023-03-01T06:48:01;102637.06;;;21.13
65738;BMP280;52478;51.844;6.582;2023-03-01T06:50:28;102637.63;;;21.17
65738;BMP280;52478;51.844;6.582;2023-03-01T06:52:55;102630.63;;;21.21
65738;BMP280;52478;51.844;6.582;2023-03-01T06:55:22;102636.78;;;21.25
65738;BMP280;52478;51.844;6.582;2023-03-01T06:57:54;102630.25;;;21.28
65738;BMP280;52478;51.844;6.582;2023-03-01T07:00:21;102635.94;;;21.33
65738;BMP280;52478;51.844;6.582;2023-03-01T07:02:47;102630.16;;;21.37
65738;BMP280;52478;51.844;6.582;2023-03-01T07:05:14;102638.03;;;21.38
65738;BMP280;52478;51.844;6.582;2023-03-01T07:07:41;102641.41;;;21.42
65738;BMP280;52478;51.844;6.582;2023-03-01T07:10:09;102628.25;;;21.43
65738;BMP280;52478;51.844;6.582;2023-03-01T07:12:35;102630.84;;;21.46
65738;BMP280;52478;51.844;6.582;2023-03-01T07:15:04;102634.41;;;21.47
65738;BMP280;52478;51.844;6.582;2023-03-01T07:17:31;102634.97;;;21.51
65738;BMP280;52478;51.844;6.582;2023-03-01T07:19:58;102634.78;;;21.54
65738;BMP280;52478;51.844;6.582;2023-03-01T07:22:24;102641.88;;;21.55
65738;BMP280;52478;51.844;6.582;2023-03-01T07:24:50;102641.97;;;21.61
65738;BMP280;52478;51.844;6.582;2023-03-01T07:27:17;102648.31;;;21.61
65738;BMP280;52478;51.844;6.582;2023-03-01T07:29:43;102641.75;;;21.64
65738;BMP280;52478;51.844;6.582;2023-03-01T07:32:11;102638.00;;;21.67
65738;BMP280;52478;51.844;6.582;2023-03-01T07:34:38;102635.50;;;21.69
65738;BMP280;52478;51.844;6.582;2023-03-01T07:37:04;102643.38;;;21.71
65738;BMP280;52478;51.844;6.582;2023-03-01T07:39:31;102645.72;;;21.72
65738;BMP280;52478;51.844;6.582;2023-03-01T07:41:57;102646.28;;;21.76
65738;BMP280;52478;51.844;6.582;2023-03-01T07:44:24;102644.53;;;21.79
65738;BMP280;52478;51.844;6.582;2023-03-01T07:46:50;102638.00;;;21.82
65738;BMP280;52478;51.844;6.582;2023-03-01T07:49:22;102644.13;;;21.86
65738;BMP280;52478;51.844;6.582;2023-03-01T07:51:49;102643.94;;;21.89
65738;BMP280;52478;51.844;6.582;2023-03-01T07:54:15;102641.44;;;21.91
65738;BMP280;52478;51.844;6.582;2023-03-01T07:56:43;102646.78;;;21.95
65738;BMP280;52478;51.844;6.582;2023-03-01T07:59:09;102629.84;;;21.98
65738;BMP280;52478;51.844;6.582;2023-03-01T08:01:36;102651.19;;;22.01
65738;BMP280;52478;51.844;6.582;2023-03-01T08:04:02;102642.13;;;22.06
65738;BMP280;52478;51.844;6.582;2023-03-01T08:06:34;102637.63;;;22.09
65738;BMP280;52478;51.844;6.582;2023-03-01T08:09:01;102645.78;;;22.12
65738;BMP280;52478;51.844;6.582;2023-03-01T08:11:27;102644.81;;;22.15
65738;BMP280;52478;51.844;6.582;2023-03-01T08:13:54;102638.72;;;22.17
65738;BMP280;52478;51.844;6.582;2023-03-01T08:16:21;102637.00;;;22.19
65738;BMP280;52478;51.844;6.582;2023-03-01T08:18:48;102637.56;;;22.23
65738;BMP280;52478;51.844;6.582;2023-03-01T08:21:16;102627.66;;;22.22
65738;BMP280;52478;51.844;6.582;2023-03-01T08:23:45;102638.84;;;22.27
65738;BMP280;52478;51.844;6.582;2023-03-01T08:26:14;102635.91;;;22.31
65738;BMP280;52478;51.844;6.582;2023-03-01T08:28:41;102630.59;;;22.33
65738;BMP280;52478;51.844;6.582;2023-03-01T08:31:14;102636.94;;;22.33
65738;BMP280;52478;51.844;6.582;2023-03-01T08:33:41;102634.41;;;22.35
65738;BMP280;52478;51.844;6.582;2023-03-01T08:36:07;102629.91;;;22.38
65738;BMP280;52478;51.844;6.582;2023-03-01T08:38:34;102637.28;;;22.41
65738;BMP280;52478;51.844;6.582;2023-03-01T08:41:03;102630.69;;;22.44
65738;BMP280;52478;51.844;6.582;2023-03-01T08:43:30;102638.09;;;22.47
65738;BMP280;52478;51.844;6.582;2023-03-01T08:45:56;102631.53;;;22.50
65738;BMP280;52478;51.844;6.582;2023-03-01T08:48:23;102624.72;;;22.51
65738;BMP280;52478;51.844;6.582;2023-03-01T08:50:50;102625.75;;;22.53
65738;BMP280;52478;51.844;6.582;2023-03-01T08:53:16;102617.66;;;22.55
65738;BMP280;52478;51.844;6.582;2023-03-01T08:55:43;102622.75;;;22.57
65738;BMP280;52478;51.844;6.582;2023-03-01T08:58:11;102623.03;;;22.59
65738;BMP280;52478;51.844;6.582;2023-03-01T09:00:37;102620.25;;;22.59
65738;BMP280;52478;51.844;6.582;2023-03-01T09:03:04;102626.09;;;22.61
65738;BMP280;52478;51.844;6.582;2023-03-01T09:05:31;102627.91;;;22.64
65738;BMP280;52478;51.844;6.582;2023-03-01T09:07:58;102618.25;;;22.65
65738;BMP280;52478;51.844;6.582;2023-03-01T09:10:25;102620.09;;;22.68
65738;BMP280;52478;51.844;6.582;2023-03-01T09:12:51;102611.72;;;22.68
65738;BMP280;52478;51.844;6.582;2023-03-01T09:15:19;102602.34;;;22.71
65738;BMP280;52478;51.844;6.582;2023-03-01T09:17:46;102602.63;;;22.73
65738;BMP280;52478;51.844;6.582;2023-03-01T09:20:12;102605.69;;;22.75
65738;BMP280;52478;51.844;6.582;2023-03-01T09:22:39;102606.72;;;22.77
65738;BMP280;52478;51.844;6.582;2023-03-01T09:25:06;102599.13;;;22.78
65738;BMP280;52478;51.844;6.582;2023-03-01T09:27:32;102612.59;;;22.79
65738;BMP280;52478;51.844;6.582;2023-03-01T09:29:59;102613.66;;;22.82
65738;BMP280;52478;51.844;6.582;2023-03-01T09:32:27;102605.50;;;22.84
65738;BMP280;52478;51.844;6.582;2023-03-01T09:34:56;102599.94;;;22.84
65738;BMP280;52478;51.844;6.582;2023-03-01T09:37:30;102594.66;;;22.86
65738;BMP280;52478;51.844;6.582;2023-03-01T09:39:57;102587.78;;;22.87
65738;BMP280;52478;51.844;6.582;2023-03-01T09:42:24;102585.75;;;22.87
65738;BMP280;52478;51.844;6.582;2023-03-01T09:44:54;102588.06;;;22.89
65738;BMP280;52478;51.844;6.582;2023-03-01T09:47:24;102586.81;;;22.90
65738;BMP280;52478;51.844;6.582;2023-03-01T09:49:58;102588.31;;;22.91
65738;BMP280;52478;51.844;6.582;2023-03-01T09:52:34;102584.28;;;22.92
65738;BMP280;52478;51.844;6.582;2023-03-01T09:55:08;102585.81;;;22.93
65738;BMP280;52478;51.844;6.582;2023-03-01T09:57:40;102580.22;;;22.93
65738;BMP280;52478;51.844;6.582;2023-03-01T10:00:20;102565.75;;;22.94
65738;BMP280;52478;51.844;6.582;2023-03-01T10:02:52;102567.28;;;22.95
65738;BMP280;52478;51.844;6.582;2023-03-01T10:05:35;102568.31;;;22.98
65738;BMP280;52478;51.844;6.582;2023-03-01T10:08:24;102559.94;;;22.98
65738;BMP280;52478;51.844;6.582;2023-03-01T10:10:53;102562.25;;;22.99
65738;BMP280;52478;51.844;6.582;2023-03-01T10:13:23;102559.44;;;22.99
65738;BMP280;52478;51.844;6.582;2023-03-01T10:15:55;102540.69;;;23.00
65738;BMP280;52478;51.844;6.582;2023-03-01T10:18:25;102554.13;;;23.01
65738;BMP280;52478;51.844;6.582;2023-03-01T10:20:56;102551.63;;;23.03
65738;BMP280;52478;51.844;6.582;2023-03-01T10:23:25;102549.84;;;23.06
65738;BMP280;52478;51.844;6.582;2023-03-01T10:26:07;102542.25;;;23.06
65738;BMP280;52478;51.844;6.582;2023-03-01T10:28:44;102537.69;;;23.09
65738;BMP280;52478;51.844;6.582;2023-03-01T10:31:19;102535.16;;;23.11
65738;BMP280;52478;51.844;6.582;2023-03-01T10:33:47;102535.16;;;23.11
65738;BMP280;52478;51.844;6.582;2023-03-01T10:36:20;102529.59;;;23.11
65738;BMP280;52478;51.844;6.582;2023-03-01T10:38:51;102530.84;;;23.10
65738;BMP280;52478;51.844;6.582;2023-03-01T10:41:19;102520.94;;;23.09
65738;BMP280;52478;51.844;6.582;2023-03-01T10:43:49;102519.41;;;23.08
65738;BMP280;52478;51.844;6.582;2023-03-01T10:46:25;102512.28;;;23.07
65738;BMP280;52478;51.844;6.582;2023-03-01T10:49:06;102513.06;;;23.07
65738;BMP280;52478;51.844;6.582;2023-03-01T10:51:34;102508.22;;;23.08
65738;BMP280;52478;51.844;6.582;2023-03-01T10:54:01;102507.47;;;23.07
65738;BMP280;52478;51.844;6.582;2023-03-01T10:56:45;102508.22;;;23.08
65738;BMP280;52478;51.844;6.582;2023-03-01T10:59:22;102503.88;;;23.07
65738;BMP280;52478;51.844;6.582;2023-03-01T11:02:02;102499.09;;;23.07
65738;BMP280;52478;51.844;6.582;2023-03-01T11:04:29;102508.22;;;23.08
65738;BMP280;52478;51.844;6.582;2023-03-01T11:07:00;102506.19;;;23.08
65738;BMP280;52478;51.844;6.582;2023-03-01T11:09:31;102515.34;;;23.09
65738;BMP280;52478;51.844;6.582;2023-03-01T11:12:03;102509.75;;;23.09
65738;BMP280;52478;51.844;6.582;2023-03-01T11:14:35;102515.59;;;23.11
65738;BMP280;52478;51.844;6.582;2023-03-01T11:17:04;102519.94;;;23.12
65738;BMP280;52478;51.844;6.582;2023-03-01T11:19:32;102515.09;;;23.12
65738;BMP280;52478;51.844;6.582;2023-03-01T11:22:03;102523.00;;;23.14
65738;BMP280;52478;51.844;6.582;2023-03-01T11:24:34;102521.75;;;23.15
65738;BMP280;52478;51.844;6.582;2023-03-01T11:27:04;102523.25;;;23.16
65738;BMP280;52478;51.844;6.582;2023-03-01T11:29:36;102513.59;;;23.17
65738;BMP280;52478;51.844;6.582;2023-03-01T11:32:06;102517.19;;;23.17
65738;BMP280;52478;51.844;6.582;2023-03-01T11:34:39;102515.66;;;23.16
65738;BMP280;52478;51.844;6.582;2023-03-01T11:37:16;102508.00;;;23.17
65738;BMP280;52478;51.844;6.582;2023-03-01T11:39:54;102516.94;;;23.21
65738;BMP280;52478;51.844;6.582;2023-03-01T11:42:29;102514.44;;;23.23
65738;BMP280;52478;51.844;6.582;2023-03-01T11:44:59;102509.56;;;23.23
65738;BMP280;52478;51.844;6.582;2023-03-01T11:47:34;102511.13;;;23.24
65738;BMP280;52478;51.844;6.582;2023-03-01T11:50:16;102505.56;;;23.24
65738;BMP280;52478;51.844;6.582;2023-03-01T11:52:55;102507.84;;;23.26
65738;BMP280;52478;51.844;6.582;2023-03-01T11:55:36;102493.84;;;23.26
65738;BMP280;52478;51.844;6.582;2023-03-01T11:58:17;102484.97;;;23.27
65738;BMP280;52478;51.844;6.582;2023-03-01T12:01:02;102488.06;;;23.29
65738;BMP280;52478;51.844;6.582;2023-03-01T12:03:51;102483.97;;;23.30
65738;BMP280;52478;51.844;6.582;2023-03-01T12:06:35;102481.97;;;23.30
65738;BMP280;52478;51.844;6.582;2023-03-01T12:09:25;102475.84;;;23.32
65738;BMP280;52478;51.844;6.582;2023-03-01T12:12:17;102486.53;;;23.33
65738;BMP280;52478;51.844;6.582;2023-03-01T12:15:11;102469.28;;;23.35
65738;BMP280;52478;51.844;6.582;2023-03-01T12:18:23;102477.66;;;23.35
65738;BMP280;52478;51.844;6.582;2023-03-01T12:20:57;102468.00;;;23.36
65738;BMP280;52478;51.844;6.582;2023-03-01T12:23:45;102465.69;;;23.34
65738;BMP280;52478;51.844;6.582;2023-03-01T12:26:29;102462.41;;;23.36
65738;BMP280;52478;51.844;6.582;2023-03-01T12:29:09;102462.91;;;23.34
65738;BMP280;52478;51.844;6.582;2023-03-01T12:31:54;102452.75;;;23.37
65738;BMP280;52478;51.844;6.582;2023-03-01T12:34:43;102452.03;;;23.36
65738;BMP280;52478;51.844;6.582;2023-03-01T12:37:22;102443.88;;;23.38
65738;BMP280;52478;51.844;6.582;2023-03-01T12:40:03;102449.47;;;23.38
65738;BMP280;52478;51.844;6.582;2023-03-01T12:42:43;102442.59;;;23.39
65738;BMP280;52478;51.844;6.582;2023-03-01T12:45:31;102437.00;;;23.39
65738;BMP280;52478;51.844;6.582;2023-03-01T12:48:09;102437.00;;;23.39
65738;BMP280;52478;51.844;6.582;2023-03-01T12:50:41;102431.44;;;23.39
65738;BMP280;52478;51.844;6.582;2023-03-01T12:53:20;102439.81;;;23.39
65738;BMP280;52478;51.844;6.582;2023-03-01T12:55:48;102420.75;;;23.38
65738;BMP280;52478;51.844;6.582;2023-03-01T12:58:24;102421.50;;;23.38
65738;BMP280;52478;51.844;6.582;2023-03-01T13:03:54;102418.47;;;23.36
65738;BMP280;52478;51.844;6.582;2023-03-01T13:06:25;102415.69;;;23.36
65738;BMP280;52478;51.844;6.582;2023-03-01T13:08:59;102414.16;;;23.35
65738;BMP280;52478;51.844;6.582;2023-03-01T13:11:30;102409.03;;;23.34
65738;BMP280;52478;51.844;6.582;2023-03-01T13:17:03;102401.72;;;23.36
65738;BMP280;52478;51.844;6.582;2023-03-01T13:19:30;102393.03;;;23.34
65738;BMP280;52478;51.844;6.582;2023-03-01T13:21:58;102392.28;;;23.34
65738;BMP280;52478;51.844;6.582;2023-03-01T13:24:25;102393.03;;;23.34
65738;BMP280;52478;51.844;6.582;2023-03-01T13:27:22;102393.56;;;23.33
65738;BMP280;52478;51.844;6.582;2023-03-01T13:29:51;102385.91;;;23.33
65738;BMP280;52478;51.844;6.582;2023-03-01T13:32:23;102381.09;;;23.34
65738;BMP280;52478;51.844;6.582;2023-03-01T13:34:55;102384.66;;;23.34
65738;BMP280;52478;51.844;6.582;2023-03-01T13:37:27;102374.72;;;23.33
65738;BMP280;52478;51.844;6.582;2023-03-01T13:39:56;102368.91;;;23.31
65738;BMP280;52478;51.844;6.582;2023-03-01T13:42:42;102366.34;;;23.33
65738;BMP280;52478;51.844;6.582;2023-03-01T13:45:21;102357.97;;;23.33
65738;BMP280;52478;51.844;6.582;2023-03-01T13:47:53;102362.81;;;23.33
65738;BMP280;52478;51.844;6.582;2023-03-01T13:50:24;102338.91;;;23.32
65738;BMP280;52478;51.844;6.582;2023-03-01T13:52:56;102347.28;;;23.32
65738;BMP280;52478;51.844;6.582;2023-03-01T13:55:30;102336.91;;;23.32
65738;BMP280;52478;51.844;6.582;2023-03-01T13:58:00;102334.88;;;23.33
65738;BMP280;52478;51.844;6.582;2023-03-01T14:00:31;102334.88;;;23.33
65738;BMP280;52478;51.844;6.582;2023-03-01T14:03:14;102328.50;;;23.32
65738;BMP280;52478;51.844;6.582;2023-03-01T14:05:43;102327.72;;;23.32
65738;BMP280;52478;51.844;6.582;2023-03-01T14:08:21;102322.13;;;23.32
65738;BMP280;52478;51.844;6.582;2023-03-01T14:11:04;102324.19;;;23.31
65738;BMP280;52478;51.844;6.582;2023-03-01T14:13:49;102319.84;;;23.30
65738;BMP280;52478;51.844;6.582;2023-03-01T14:16:27;102315.53;;;23.29
65738;BMP280;52478;51.844;6.582;2023-03-01T14:19:09;102306.41;;;23.29
65738;BMP280;52478;51.844;6.582;2023-03-01T14:21:38;102302.06;;;23.28